JNB weather

OR Tambo International Airport
Johannesburg, Gauteng, South Africa

Public forecast

Using degrees Celsius for public forecast. Weather courtesy of forecast.io.

METAR (pilot weather report)

Retrieved 2018/08/16 12:30 UTC (12 minutes ago):

FAOR 161230Z 30013KT 270V340 CAVOK 24/02 Q1025 NOSIG

TAF (pilot weather forecast)

Forecast is more than 12 hours old.

Retrieved 2018/08/15 00:00 UTC (2 days ago):

TAF FAOR 152200Z 1600/1706 01007KT CAVOK BECMG 1606/1608 31014KT FM161630 35007KT CAVOK TX24/1612Z TN13/1704Z